createdAt,value
2022-09-01T00:00:01.754Z,19.88
2022-09-01T00:02:09.527Z,19.86
2022-09-01T00:04:13.402Z,19.73
2022-09-01T00:06:22.420Z,19.80
2022-09-01T00:08:25.558Z,19.84
2022-09-01T00:10:28.590Z,19.87
2022-09-01T00:12:31.796Z,19.88
2022-09-01T00:14:41.571Z,19.85
2022-09-01T00:16:44.523Z,19.80
2022-09-01T00:18:50.663Z,19.79
2022-09-01T00:20:55.765Z,19.77
2022-09-01T00:23:00.525Z,19.76
2022-09-01T00:25:03.526Z,19.73
2022-09-01T00:27:06.433Z,19.73
2022-09-01T00:29:09.371Z,19.84
2022-09-01T00:31:15.134Z,19.77
2022-09-01T00:33:18.132Z,19.77
2022-09-01T00:35:21.288Z,19.80
2022-09-01T00:37:24.242Z,19.79
2022-09-01T00:39:27.200Z,19.74
2022-09-01T00:41:32.419Z,19.79
2022-09-01T00:43:41.442Z,19.76
2022-09-01T00:45:44.518Z,19.69
2022-09-01T00:47:48.841Z,19.67
2022-09-01T00:49:53.057Z,19.63
2022-09-01T00:51:59.894Z,19.60
2022-09-01T00:54:03.497Z,19.58
2022-09-01T00:56:07.917Z,19.56
2022-09-01T00:58:18.406Z,19.52
2022-09-01T01:00:25.787Z,19.48
2022-09-01T01:02:28.764Z,19.46
2022-09-01T01:04:33.101Z,19.46
2022-09-01T01:06:35.932Z,19.41
2022-09-01T01:08:43.233Z,19.43
2022-09-01T01:10:46.283Z,19.43
2022-09-01T01:12:52.594Z,19.38
2022-09-01T01:14:56.971Z,19.35
2022-09-01T01:17:01.571Z,19.41
2022-09-01T01:19:05.518Z,19.41
2022-09-01T01:21:33.970Z,19.42
2022-09-01T01:23:42.081Z,19.44
2022-09-01T01:25:50.028Z,19.45
2022-09-01T01:27:53.626Z,19.46
2022-09-01T01:29:57.468Z,19.45
2022-09-01T01:32:00.614Z,19.43
2022-09-01T01:34:06.212Z,19.41
2022-09-01T01:36:13.230Z,19.38
2022-09-01T01:38:16.344Z,19.39
2022-09-01T01:40:22.754Z,19.35
2022-09-01T01:42:28.361Z,19.29
2022-09-01T01:44:32.026Z,19.38
2022-09-01T01:46:44.029Z,19.35
2022-09-01T01:48:49.904Z,19.26
2022-09-01T01:50:54.934Z,19.21
2022-09-01T01:53:00.036Z,19.23
2022-09-01T01:55:05.348Z,19.20
2022-09-01T01:57:08.575Z,19.16
2022-09-01T01:59:15.415Z,19.19
2022-09-01T02:01:22.064Z,19.12
2022-09-01T02:03:38.278Z,19.12
2022-09-01T02:05:41.291Z,19.09
2022-09-01T02:07:44.222Z,19.13
2022-09-01T02:09:50.123Z,19.13
2022-09-01T02:11:57.053Z,19.14
2022-09-01T02:14:00.805Z,19.12
2022-09-01T02:16:13.010Z,19.08
2022-09-01T02:18:20.174Z,19.04
2022-09-01T02:20:24.858Z,19.05
2022-09-01T02:22:28.460Z,19.02
2022-09-01T02:24:31.854Z,18.99
2022-09-01T02:26:39.497Z,18.98
2022-09-01T02:28:43.134Z,18.92
2022-09-01T02:30:52.088Z,18.95
2022-09-01T02:32:58.663Z,18.88
2022-09-01T02:35:02.575Z,18.87
2022-09-01T02:37:05.487Z,18.83
2022-09-01T02:39:08.459Z,18.79
2022-09-01T02:41:12.003Z,18.83
2022-09-01T02:43:19.537Z,18.81
2022-09-01T02:45:24.046Z,18.79
2022-09-01T02:47:28.513Z,18.77
2022-09-01T02:49:35.905Z,18.76
2022-09-01T02:51:39.469Z,18.76
2022-09-01T02:53:43.485Z,18.73
2022-09-01T02:55:46.756Z,18.66
2022-09-01T02:57:50.874Z,18.69
2022-09-01T02:59:58.914Z,18.66
2022-09-01T03:02:02.607Z,18.62
2022-09-01T03:04:08.084Z,18.60
2022-09-01T03:06:12.778Z,18.55
2022-09-01T03:08:16.419Z,18.56
2022-09-01T03:10:21.416Z,18.55
2022-09-01T03:12:28.220Z,18.56
2022-09-01T03:14:31.963Z,18.56
2022-09-01T03:16:36.269Z,18.59
2022-09-01T03:18:40.097Z,18.40
2022-09-01T03:20:46.364Z,18.43
2022-09-01T03:22:51.791Z,18.43
2022-09-01T03:24:56.348Z,18.39
2022-09-01T03:27:02.373Z,18.38
2022-09-01T03:29:06.328Z,18.36
2022-09-01T03:31:09.907Z,18.31
2022-09-01T03:33:13.308Z,18.30
2022-09-01T03:35:17.518Z,18.32
2022-09-01T03:37:20.860Z,18.27
2022-09-01T03:39:25.130Z,18.28
2022-09-01T03:41:30.759Z,18.22
2022-09-01T03:43:37.677Z,18.25
2022-09-01T03:45:48.848Z,18.24
2022-09-01T03:47:52.699Z,18.25
2022-09-01T03:49:56.884Z,18.27
2022-09-01T03:52:01.231Z,18.61
2022-09-01T03:54:05.034Z,19.00
2022-09-01T03:56:11.422Z,19.24
2022-09-01T03:58:19.012Z,19.39
2022-09-01T04:00:25.213Z,19.55
2022-09-01T04:02:30.610Z,19.69
2022-09-01T04:04:33.860Z,19.74
2022-09-01T04:06:38.373Z,19.73
2022-09-01T04:08:41.321Z,19.72
2022-09-01T04:10:49.438Z,19.56
2022-09-01T04:12:59.177Z,19.38
2022-09-01T04:15:02.071Z,19.11
2022-09-01T04:17:25.466Z,18.95
2022-09-01T04:19:36.672Z,18.79
2022-09-01T04:21:39.918Z,18.66
2022-09-01T04:23:43.077Z,18.56
2022-09-01T04:25:46.690Z,18.46
2022-09-01T04:27:50.440Z,18.41
2022-09-01T04:29:57.783Z,18.30
2022-09-01T04:32:07.606Z,18.26
2022-09-01T04:34:13.805Z,18.17
2022-09-01T04:36:23.635Z,18.06
2022-09-01T04:38:29.562Z,18.04
2022-09-01T04:40:32.771Z,17.98
2022-09-01T04:42:35.738Z,17.98
2022-09-01T04:44:40.318Z,18.00
2022-09-01T04:46:46.442Z,17.96
2022-09-01T04:48:53.299Z,18.00
2022-09-01T04:50:58.264Z,17.98
2022-09-01T04:53:06.748Z,17.99
2022-09-01T04:55:20.979Z,17.96
2022-09-01T04:57:29.188Z,18.01
2022-09-01T04:59:32.536Z,18.02
2022-09-01T05:01:43.301Z,18.02
2022-09-01T05:03:56.421Z,18.05
2022-09-01T05:06:17.594Z,18.11
2022-09-01T05:08:25.325Z,18.08
2022-09-01T05:10:34.594Z,18.09
2022-09-01T05:12:52.384Z,18.06
2022-09-01T05:14:55.977Z,18.09
2022-09-01T05:17:00.263Z,18.07
2022-09-01T05:19:06.373Z,18.09
2022-09-01T05:21:11.733Z,18.13
2022-09-01T05:23:17.772Z,18.10
2022-09-01T05:25:20.900Z,17.99
2022-09-01T05:27:23.876Z,17.96
2022-09-01T05:29:27.626Z,17.96
2022-09-01T05:31:34.765Z,17.97
2022-09-01T05:33:39.713Z,18.03
2022-09-01T05:35:53.321Z,18.00
2022-09-01T05:37:59.535Z,18.00
2022-09-01T05:40:02.733Z,18.00
2022-09-01T05:42:07.978Z,18.05
2022-09-01T05:44:15.555Z,18.08
2022-09-01T05:46:22.805Z,18.06
2022-09-01T05:48:26.296Z,18.10
2022-09-01T05:50:29.220Z,18.22
2022-09-01T05:52:35.095Z,18.25
2022-09-01T05:54:37.953Z,18.13
2022-09-01T05:56:43.876Z,18.08
2022-09-01T06:01:16.823Z,18.09
2022-09-01T06:03:21.187Z,18.11
2022-09-01T06:05:26.904Z,18.13
2022-09-01T06:07:30.835Z,18.19
2022-09-01T06:09:40.423Z,18.31
2022-09-01T06:11:43.313Z,18.37
2022-09-01T06:13:50.540Z,18.35
2022-09-01T06:15:58.285Z,18.41
2022-09-01T06:18:01.778Z,18.36
2022-09-01T06:20:10.474Z,18.40
2022-09-01T06:22:14.430Z,18.40
2022-09-01T06:24:18.041Z,18.31
2022-09-01T06:26:27.074Z,18.39
2022-09-01T06:28:30.836Z,18.40
2022-09-01T06:30:36.356Z,18.30
2022-09-01T06:32:44.796Z,18.30
2022-09-01T06:34:50.241Z,18.35
2022-09-01T06:36:53.546Z,18.40
2022-09-01T06:38:57.375Z,18.41
2022-09-01T06:41:04.155Z,18.44
2022-09-01T06:43:09.139Z,18.52
2022-09-01T06:45:16.371Z,18.54
2022-09-01T06:47:19.641Z,18.55
2022-09-01T06:49:32.447Z,18.55
2022-09-01T06:51:36.995Z,18.62
2022-09-01T06:53:40.611Z,18.49
2022-09-01T06:55:50.401Z,18.51
2022-09-01T06:58:13.927Z,18.59
2022-09-01T07:00:20.139Z,18.60
2022-09-01T07:02:27.021Z,18.70
2022-09-01T07:04:53.456Z,18.70
2022-09-01T07:07:53.043Z,18.78
2022-09-01T07:09:47.339Z,18.78
2022-09-01T07:14:32.964Z,18.68
2022-09-01T07:19:06.524Z,18.75
2022-09-01T07:21:38.747Z,18.83
2022-09-01T07:23:46.239Z,18.86
2022-09-01T07:26:04.268Z,18.89
2022-09-01T07:28:15.964Z,18.83
2022-09-01T07:32:47.769Z,19.03
2022-09-01T07:34:52.174Z,19.00
2022-09-01T07:37:17.321Z,19.13
2022-09-01T07:42:56.295Z,18.72
2022-09-01T07:42:56.789Z,18.92
2022-09-01T07:47:52.850Z,19.53
2022-09-01T07:50:37.446Z,19.65
2022-09-01T07:52:23.010Z,19.62
2022-09-01T07:54:33.941Z,19.61
2022-09-01T07:56:40.125Z,19.65
2022-09-01T07:58:44.034Z,19.71
2022-09-01T08:00:49.042Z,19.86
2022-09-01T08:02:57.022Z,19.80
2022-09-01T08:05:01.642Z,19.78
2022-09-01T08:07:05.655Z,19.81
2022-09-01T08:09:11.736Z,19.80
2022-09-01T08:11:21.908Z,19.83
2022-09-01T08:13:38.805Z,19.85
2022-09-01T08:18:08.634Z,19.77
2022-09-01T08:20:14.073Z,19.73
2022-09-01T08:22:35.324Z,19.72
2022-09-01T08:24:46.508Z,19.73
2022-09-01T08:26:49.605Z,19.73
2022-09-01T08:28:56.119Z,19.76
2022-09-01T08:31:14.569Z,19.71
2022-09-01T08:33:18.126Z,19.82
2022-09-01T08:35:24.525Z,19.96
2022-09-01T08:37:29.084Z,20.06
2022-09-01T08:39:32.781Z,20.10
2022-09-01T08:41:47.222Z,20.22
2022-09-01T08:44:04.077Z,20.35
2022-09-01T08:46:14.226Z,20.44
2022-09-01T08:49:09.828Z,20.53
2022-09-01T08:50:52.931Z,20.48
2022-09-01T08:53:10.414Z,20.57
2022-09-01T08:55:22.064Z,20.68
2022-09-01T08:57:32.275Z,20.80
2022-09-01T08:59:54.317Z,20.86
2022-09-01T09:02:27.972Z,20.88
2022-09-01T09:04:51.494Z,21.16
2022-09-01T09:07:06.766Z,21.17
2022-09-01T09:09:10.462Z,21.40
2022-09-01T09:11:50.244Z,21.30
2022-09-01T09:14:07.423Z,21.33
2022-09-01T09:18:39.383Z,21.58
2022-09-01T09:20:45.341Z,21.50
2022-09-01T09:22:49.960Z,21.52
2022-09-01T09:24:56.336Z,21.53
2022-09-01T09:27:00.412Z,21.38
2022-09-01T09:29:03.336Z,21.37
2022-09-01T09:31:32.484Z,21.50
2022-09-01T09:33:51.231Z,21.67
2022-09-01T09:35:57.527Z,21.73
2022-09-01T09:38:22.790Z,21.79
2022-09-01T09:40:27.963Z,21.74
2022-09-01T09:42:34.897Z,21.73
2022-09-01T09:44:44.716Z,21.71
2022-09-01T09:46:48.767Z,21.69
2022-09-01T09:49:08.883Z,21.59
2022-09-01T09:51:18.339Z,21.61
2022-09-01T09:53:32.489Z,21.79
2022-09-01T09:55:35.405Z,22.09
2022-09-01T09:57:41.621Z,22.01
2022-09-01T10:00:01.756Z,21.87
2022-09-01T10:02:21.435Z,21.94
2022-09-01T10:04:37.247Z,22.00
2022-09-01T10:06:42.057Z,21.91
2022-09-01T10:08:47.922Z,21.77
2022-09-01T10:10:57.834Z,21.86
2022-09-01T10:13:02.619Z,21.69
2022-09-01T10:15:12.742Z,21.83
2022-09-01T10:17:20.685Z,22.08
2022-09-01T10:19:24.201Z,22.34
2022-09-01T10:21:32.851Z,22.39
2022-09-01T10:23:38.732Z,22.60
2022-09-01T10:25:47.556Z,22.87
2022-09-01T10:27:58.389Z,23.05
2022-09-01T10:30:21.084Z,23.15
2022-09-01T10:32:36.703Z,23.41
2022-09-01T10:34:42.731Z,23.46
2022-09-01T10:36:54.931Z,23.77
2022-09-01T10:39:05.000Z,23.82
2022-09-01T10:41:14.973Z,23.77
2022-09-01T10:43:36.353Z,23.67
2022-09-01T10:45:41.026Z,23.66
2022-09-01T10:47:44.288Z,23.42
2022-09-01T10:50:09.881Z,23.26
2022-09-01T10:52:14.367Z,23.19
2022-09-01T10:54:55.750Z,23.22
2022-09-01T10:57:03.926Z,23.19
2022-09-01T10:59:31.597Z,23.21
2022-09-01T11:02:28.096Z,23.33
2022-09-01T11:05:04.710Z,23.65
2022-09-01T11:07:56.587Z,24.09
2022-09-01T11:10:34.430Z,24.05
2022-09-01T11:12:48.798Z,24.14
2022-09-01T11:14:54.104Z,24.35
2022-09-01T11:17:14.238Z,24.14
2022-09-01T11:19:38.535Z,24.43
2022-09-01T11:21:41.470Z,24.48
2022-09-01T11:23:46.134Z,24.58
2022-09-01T11:26:19.083Z,24.57
2022-09-01T11:28:39.429Z,24.51
2022-09-01T11:30:52.762Z,24.26
2022-09-01T11:33:03.518Z,24.41
2022-09-01T11:35:15.302Z,24.34
2022-09-01T11:37:22.350Z,24.52
2022-09-01T11:39:33.803Z,24.52
2022-09-01T11:41:55.743Z,24.46
2022-09-01T11:44:04.771Z,24.67
2022-09-01T11:46:17.563Z,24.81
2022-09-01T11:48:20.595Z,24.86
2022-09-01T11:50:27.054Z,24.96
2022-09-01T11:52:32.803Z,25.03
2022-09-01T11:54:42.542Z,25.05
2022-09-01T11:56:45.467Z,25.24
2022-09-01T11:58:48.480Z,25.26
2022-09-01T12:00:52.649Z,25.47
2022-09-01T12:02:56.349Z,25.35
2022-09-01T12:04:59.334Z,25.60
2022-09-01T12:07:05.405Z,25.68
2022-09-01T12:09:13.838Z,25.54
2022-09-01T12:11:22.492Z,25.65
2022-09-01T12:13:25.417Z,25.64
2022-09-01T12:15:28.899Z,25.56
2022-09-01T12:17:33.141Z,25.64
2022-09-01T12:19:38.514Z,25.51
2022-09-01T12:21:43.839Z,25.71
2022-09-01T12:23:46.815Z,25.70
2022-09-01T12:25:49.874Z,25.73
2022-09-01T12:27:53.329Z,25.62
2022-09-01T12:29:56.720Z,25.47
2022-09-01T12:32:01.407Z,25.36
2022-09-01T12:34:05.772Z,25.17
2022-09-01T12:36:15.414Z,25.22
2022-09-01T12:38:30.639Z,25.26
2022-09-01T12:40:35.932Z,25.55
2022-09-01T12:42:41.560Z,25.26
2022-09-01T12:44:51.285Z,24.92
2022-09-01T12:46:55.098Z,24.72
2022-09-01T12:49:19.617Z,24.74
2022-09-01T12:51:29.231Z,24.66
2022-09-01T12:53:36.961Z,24.72
2022-09-01T12:55:47.672Z,25.01
2022-09-01T12:57:53.394Z,25.26
2022-09-01T13:00:15.019Z,25.29
2022-09-01T13:02:28.510Z,24.96
2022-09-01T13:04:34.130Z,24.89
2022-09-01T13:06:37.129Z,24.76
2022-09-01T13:08:39.983Z,24.60
2022-09-01T13:10:45.163Z,24.60
2022-09-01T13:12:48.046Z,24.53
2022-09-01T13:14:51.338Z,24.46
2022-09-01T13:16:55.169Z,24.44
2022-09-01T13:19:18.000Z,24.47
2022-09-01T13:21:22.566Z,24.48
2022-09-01T13:23:25.787Z,24.56
2022-09-01T13:25:28.613Z,24.62
2022-09-01T13:27:31.553Z,24.73
2022-09-01T13:29:34.460Z,25.00
2022-09-01T13:31:37.429Z,25.27
2022-09-01T13:36:42.656Z,25.17
2022-09-01T13:38:28.050Z,25.44
2022-09-01T13:40:31.841Z,25.48
2022-09-01T13:42:34.897Z,25.67
2022-09-01T13:44:37.778Z,25.83
2022-09-01T13:49:41.380Z,25.67
2022-09-01T13:51:28.225Z,25.91
2022-09-01T13:53:32.462Z,25.79
2022-09-01T13:55:39.361Z,25.88
2022-09-01T13:57:42.329Z,26.05
2022-09-01T13:59:45.272Z,25.93
2022-09-01T14:01:48.169Z,26.00
2022-09-01T14:03:52.128Z,26.15
2022-09-01T14:05:56.070Z,26.21
2022-09-01T14:07:59.769Z,26.03
2022-09-01T14:10:05.008Z,25.91
2022-09-01T14:12:08.227Z,25.75
2022-09-01T14:14:11.043Z,25.74
2022-09-01T14:16:15.185Z,25.54
2022-09-01T14:18:19.171Z,25.45
2022-09-01T14:20:24.423Z,25.34
2022-09-01T14:22:27.521Z,25.29
2022-09-01T14:24:30.661Z,25.37
2022-09-01T14:26:35.078Z,25.49
2022-09-01T14:28:38.832Z,25.58
2022-09-01T14:30:43.271Z,25.70
2022-09-01T14:32:46.825Z,25.71
2022-09-01T14:34:50.017Z,25.94
2022-09-01T14:36:57.676Z,25.84
2022-09-01T14:39:00.608Z,25.98
2022-09-01T14:41:03.571Z,25.86
2022-09-01T14:43:10.348Z,25.97
2022-09-01T14:45:15.599Z,25.81
2022-09-01T14:47:19.103Z,25.57
2022-09-01T14:49:22.760Z,25.52
2022-09-01T14:52:10.150Z,25.43
2022-09-01T14:53:53.417Z,25.31
2022-09-01T14:55:57.207Z,25.17
2022-09-01T14:58:00.355Z,25.15
2022-09-01T15:00:10.079Z,25.07
2022-09-01T15:02:13.713Z,25.06
2022-09-01T15:04:16.663Z,24.98
2022-09-01T15:06:21.622Z,24.99
2022-09-01T15:08:24.948Z,25.04
2022-09-01T15:10:28.065Z,25.02
2022-09-01T15:12:31.581Z,24.99
2022-09-01T15:14:34.441Z,24.99
2022-09-01T15:16:41.401Z,25.03
2022-09-01T15:18:44.267Z,25.14
2022-09-01T15:20:46.259Z,25.15
2022-09-01T15:22:49.612Z,25.19
2022-09-01T15:24:52.516Z,25.26
2022-09-01T15:26:55.359Z,25.49
2022-09-01T15:28:58.711Z,25.54
2022-09-01T15:31:01.646Z,25.48
2022-09-01T15:33:06.968Z,25.47
2022-09-01T15:35:10.235Z,25.54
2022-09-01T15:37:13.144Z,25.63
2022-09-01T15:39:16.026Z,25.91
2022-09-01T15:41:20.306Z,25.90
2022-09-01T15:43:23.639Z,25.82
2022-09-01T15:45:28.980Z,25.88
2022-09-01T15:47:32.480Z,25.97
2022-09-01T15:49:37.033Z,25.74
2022-09-01T15:51:41.279Z,25.57
2022-09-01T15:53:43.944Z,25.43
2022-09-01T15:55:49.356Z,25.28
2022-09-01T15:57:54.925Z,25.18
2022-09-01T15:59:58.326Z,25.25
2022-09-01T16:02:01.992Z,25.05
2022-09-01T16:04:06.497Z,25.01
2022-09-01T16:06:10.667Z,24.85
2022-09-01T16:08:21.080Z,24.83
2022-09-01T16:10:24.541Z,24.82
2022-09-01T16:12:28.775Z,24.89
2022-09-01T16:14:31.934Z,24.89
2022-09-01T16:16:46.127Z,24.81
2022-09-01T16:18:57.395Z,24.90
2022-09-01T16:21:04.786Z,24.90
2022-09-01T16:23:17.137Z,24.83
2022-09-01T16:25:26.867Z,24.73
2022-09-01T16:27:35.208Z,24.69
2022-09-01T16:29:45.315Z,24.65
2022-09-01T16:31:51.702Z,24.70
2022-09-01T16:33:57.070Z,24.68
2022-09-01T16:36:08.986Z,24.70
2022-09-01T16:38:28.140Z,24.58
2022-09-01T16:40:42.602Z,24.68
2022-09-01T16:42:58.008Z,24.68
2022-09-01T16:45:11.019Z,24.57
2022-09-01T16:47:34.461Z,24.54
2022-09-01T16:49:45.523Z,24.54
2022-09-01T16:51:57.594Z,24.54
2022-09-01T16:54:14.457Z,24.54
2022-09-01T16:56:25.312Z,24.50
2022-09-01T16:58:37.102Z,24.58
2022-09-01T17:00:51.272Z,24.48
2022-09-01T17:03:07.810Z,24.41
2022-09-01T17:05:22.069Z,24.39
2022-09-01T17:07:30.038Z,24.36
2022-09-01T17:09:40.078Z,24.38
2022-09-01T17:11:49.666Z,24.36
2022-09-01T17:13:54.910Z,24.39
2022-09-01T17:16:07.919Z,24.38
2022-09-01T17:18:22.838Z,24.36
2022-09-01T17:20:30.592Z,24.30
2022-09-01T17:22:36.648Z,24.24
2022-09-01T17:24:43.540Z,24.23
2022-09-01T17:26:50.729Z,24.20
2022-09-01T17:28:56.873Z,24.21
2022-09-01T17:31:09.819Z,24.26
2022-09-01T17:33:23.176Z,24.17
2022-09-01T17:35:33.507Z,24.15
2022-09-01T17:37:44.631Z,24.06
2022-09-01T17:39:59.672Z,24.11
2022-09-01T17:42:10.461Z,24.07
2022-09-01T17:44:21.131Z,24.02
2022-09-01T17:46:34.965Z,24.01
2022-09-01T17:48:43.847Z,23.88
2022-09-01T17:50:59.554Z,23.92
2022-09-01T17:53:15.523Z,23.94
2022-09-01T17:55:32.931Z,23.84
2022-09-01T17:57:43.857Z,23.81
2022-09-01T17:59:54.794Z,23.83
2022-09-01T18:02:15.792Z,23.82
2022-09-01T18:04:43.331Z,23.74
2022-09-01T18:06:51.516Z,23.66
2022-09-01T18:08:58.099Z,23.63
2022-09-01T18:11:09.045Z,23.56
2022-09-01T18:13:30.716Z,23.52
2022-09-01T18:15:52.111Z,23.62
2022-09-01T18:18:07.275Z,23.61
2022-09-01T18:20:12.612Z,23.48
2022-09-01T18:22:19.910Z,23.38
2022-09-01T18:24:29.763Z,23.34
2022-09-01T18:26:39.201Z,23.37
2022-09-01T18:28:42.636Z,23.33
2022-09-01T18:30:54.025Z,23.30
2022-09-01T18:33:08.064Z,23.29
2022-09-01T18:35:25.536Z,23.17
2022-09-01T18:37:37.401Z,23.18
2022-09-01T18:39:51.734Z,23.23
2022-09-01T18:42:06.930Z,23.18
2022-09-01T18:44:23.628Z,23.13
2022-09-01T18:46:36.935Z,23.08
2022-09-01T18:48:53.869Z,23.09
2022-09-01T18:51:03.490Z,23.14
2022-09-01T18:53:27.999Z,23.06
2022-09-01T18:55:43.474Z,23.05
2022-09-01T18:57:52.266Z,23.01
2022-09-01T19:00:17.865Z,23.00
2022-09-01T19:02:37.061Z,22.95
2022-09-01T19:04:45.906Z,22.97
2022-09-01T19:06:59.786Z,22.95
2022-09-01T19:09:12.217Z,22.91
2022-09-01T19:11:23.936Z,22.87
2022-09-01T19:13:41.660Z,22.90
2022-09-01T19:15:56.731Z,22.80
2022-09-01T19:18:09.903Z,22.80
2022-09-01T19:20:18.569Z,22.74
2022-09-01T19:22:30.137Z,22.79
2022-09-01T19:24:44.155Z,22.74
2022-09-01T19:26:51.177Z,22.75
2022-09-01T19:28:59.318Z,22.68
2022-09-01T19:31:08.132Z,22.66
2022-09-01T19:33:15.575Z,22.69
2022-09-01T19:35:19.001Z,22.65
2022-09-01T19:37:22.449Z,22.65
2022-09-01T19:39:27.904Z,22.62
2022-09-01T19:41:35.368Z,22.62
2022-09-01T19:43:43.128Z,22.58
2022-09-01T19:45:59.982Z,22.57
2022-09-01T19:48:13.266Z,22.59
2022-09-01T19:50:22.496Z,22.52
2022-09-01T19:52:34.348Z,22.46
2022-09-01T19:54:45.711Z,22.40
2022-09-01T19:56:55.651Z,22.40
2022-09-01T19:59:09.488Z,22.36
2022-09-01T20:01:16.961Z,22.36
2022-09-01T20:03:26.434Z,22.30
2022-09-01T20:05:33.101Z,22.25
2022-09-01T20:07:40.630Z,22.25
2022-09-01T20:09:51.886Z,22.22
2022-09-01T20:11:59.931Z,22.18
2022-09-01T20:14:20.259Z,22.15
2022-09-01T20:16:31.025Z,22.07
2022-09-01T20:18:39.845Z,22.05
2022-09-01T20:20:59.250Z,22.00
2022-09-01T20:23:09.170Z,21.95
2022-09-01T20:25:15.292Z,21.92
2022-09-01T20:27:32.014Z,21.88
2022-09-01T20:29:44.556Z,21.84
2022-09-01T20:31:53.393Z,21.81
2022-09-01T20:34:03.363Z,21.78
2022-09-01T20:36:12.508Z,21.74
2022-09-01T20:38:39.532Z,21.71
2022-09-01T20:40:45.041Z,21.66
2022-09-01T20:42:58.248Z,21.72
2022-09-01T20:45:04.117Z,21.66
2022-09-01T20:47:08.523Z,21.68
2022-09-01T20:49:12.494Z,21.61
2022-09-01T20:51:31.363Z,21.66
2022-09-01T20:53:56.509Z,21.66
2022-09-01T20:56:08.674Z,21.65
2022-09-01T20:58:16.660Z,21.69
2022-09-01T21:00:22.550Z,21.69
2022-09-01T21:02:39.011Z,21.68
2022-09-01T21:04:50.805Z,21.63
2022-09-01T21:06:58.540Z,21.58
2022-09-01T21:09:08.330Z,21.55
2022-09-01T21:11:37.236Z,21.48
2022-09-01T21:13:54.200Z,21.42
2022-09-01T21:16:01.263Z,21.36
2022-09-01T21:18:29.924Z,21.37
2022-09-01T21:20:45.578Z,21.31
2022-09-01T21:22:49.899Z,21.28
2022-09-01T21:24:52.800Z,21.29
2022-09-01T21:26:57.031Z,21.30
2022-09-01T21:29:05.997Z,21.27
2022-09-01T21:31:09.165Z,21.25
2022-09-01T21:33:13.402Z,21.27
2022-09-01T21:35:19.473Z,21.22
2022-09-01T21:37:23.660Z,21.23
2022-09-01T21:39:26.582Z,21.19
2022-09-01T21:41:29.549Z,21.17
2022-09-01T21:43:36.683Z,21.17
2022-09-01T21:45:39.643Z,21.13
2022-09-01T21:47:43.772Z,21.11
2022-09-01T21:49:48.055Z,21.06
2022-09-01T21:51:51.004Z,21.03
2022-09-01T21:53:53.915Z,20.98
2022-09-01T21:55:56.811Z,20.93
2022-09-01T21:57:59.971Z,20.91
2022-09-01T22:00:03.427Z,20.90
2022-09-01T22:02:07.100Z,20.86
2022-09-01T22:04:10.841Z,20.85
2022-09-01T22:06:15.115Z,20.83
2022-09-01T22:08:18.574Z,20.82
2022-09-01T22:10:25.367Z,20.80
2022-09-01T22:12:28.245Z,20.78
2022-09-01T22:14:31.150Z,20.78
2022-09-01T22:16:34.197Z,20.77
2022-09-01T22:18:37.097Z,20.74
2022-09-01T22:20:40.466Z,20.71
2022-09-01T22:22:44.848Z,20.67
2022-09-01T22:24:48.899Z,20.65
2022-09-01T22:26:51.775Z,20.65
2022-09-01T22:28:56.062Z,20.65
2022-09-01T22:30:59.310Z,20.64
2022-09-01T22:33:03.752Z,20.64
2022-09-01T22:35:10.572Z,20.68
2022-09-01T22:37:13.397Z,20.66
2022-09-01T22:39:19.152Z,20.66
2022-09-01T22:41:27.257Z,20.60
2022-09-01T22:43:31.038Z,20.57
2022-09-01T22:45:33.921Z,20.52
2022-09-01T22:47:38.602Z,20.50
2022-09-01T22:49:41.595Z,20.43
2022-09-01T22:51:44.621Z,20.39
2022-09-01T22:53:47.910Z,20.34
2022-09-01T22:55:53.760Z,20.28
2022-09-01T22:57:56.601Z,20.18
2022-09-01T22:59:59.556Z,20.17
2022-09-01T23:02:02.676Z,20.16
2022-09-01T23:04:08.059Z,20.15
2022-09-01T23:06:14.676Z,20.13
2022-09-01T23:08:30.450Z,20.04
2022-09-01T23:10:33.464Z,20.00
2022-09-01T23:12:38.321Z,20.00
2022-09-01T23:14:41.226Z,19.95
2022-09-01T23:16:44.157Z,19.95
2022-09-01T23:18:48.449Z,19.89
2022-09-01T23:20:51.634Z,19.82
2022-09-01T23:22:54.719Z,19.80
2022-09-01T23:24:57.641Z,19.79
2022-09-01T23:27:00.487Z,19.78
2022-09-01T23:29:05.581Z,19.76
2022-09-01T23:31:09.220Z,19.75
2022-09-01T23:33:12.240Z,19.71
2022-09-01T23:35:16.379Z,19.71
2022-09-01T23:37:19.434Z,19.69
2022-09-01T23:39:22.303Z,19.69
2022-09-01T23:41:29.256Z,19.66
2022-09-01T23:43:32.112Z,19.61
2022-09-01T23:45:41.268Z,19.60
2022-09-01T23:47:44.201Z,19.52
2022-09-01T23:49:47.058Z,19.51
2022-09-01T23:51:50.292Z,19.50
2022-09-01T23:53:53.719Z,19.48
2022-09-01T23:55:58.567Z,19.44
2022-09-01T23:58:01.419Z,19.43
